Time;durP1;ratioP1;P1;durP2;ratioP2;P2;SDS_P1;SDS_P2;PMS_P1;PMS_P2;Temp;Humidity;BMP_temperature;BMP_pressure;BME280_temperature;BME280_humidity;BME280_pressure;Samples;Min_cycle;Max_cycle;Signal;HPM_P1;HPM_P2
2023/01/02 00:00:30;;;;;;;13.10;11.70;;;;;;;3.50;100.00;97461.81;5042252;28;20230;-69
2023/01/02 00:02:58;;;;;;;12.20;10.90;;;;;;;3.49;100.00;97468.00;4999879;28;20361;-72
2023/01/02 00:05:26;;;;;;;11.07;10.07;;;;;;;3.45;100.00;97470.06;5050618;28;20203;-70
2023/01/02 00:07:55;;;;;;;11.00;10.00;;;;;;;3.33;100.00;97478.97;5002612;28;20296;-74
2023/01/02 00:10:23;;;;;;;11.13;9.97;;;;;;;3.28;100.00;97468.06;5045823;28;20199;-71
2023/01/02 00:12:50;;;;;;;10.77;9.67;;;;;;;3.17;100.00;97472.41;5041063;28;20219;-72
2023/01/02 00:15:18;;;;;;;11.63;10.53;;;;;;;3.14;100.00;97477.91;5048323;28;20199;-71
2023/01/02 00:17:45;;;;;;;12.20;11.00;;;;;;;3.13;100.00;97476.25;5037870;28;20242;-72
2023/01/02 00:20:13;;;;;;;11.57;10.47;;;;;;;3.15;100.00;97476.94;5046530;28;20243;-72
2023/01/02 00:22:40;;;;;;;13.33;12.13;;;;;;;3.06;100.00;97459.41;5002289;28;20222;-72
2023/01/02 00:25:09;;;;;;;12.77;11.47;;;;;;;3.15;100.00;97466.47;5042440;28;20227;-73
2023/01/02 00:27:37;;;;;;;14.47;13.00;;;;;;;3.11;100.00;97465.06;5041499;28;20571;-72
2023/01/02 00:30:05;;;;;;;14.23;11.50;;;;;;;3.06;100.00;97458.59;5045693;28;20813;-72
2023/01/02 00:32:33;;;;;;;16.03;13.33;;;;;;;3.04;100.00;97450.84;5039799;28;20206;-73
2023/01/02 00:35:01;;;;;;;15.07;13.47;;;;;;;3.01;100.00;97451.09;5043685;28;20210;-74
2023/01/02 00:37:28;;;;;;;14.83;13.37;;;;;;;2.98;100.00;97451.38;4995384;28;20595;-71
2023/01/02 00:39:56;;;;;;;13.93;12.53;;;;;;;3.15;100.00;97444.72;5039621;28;20195;-73
2023/01/02 00:42:25;;;;;;;15.17;13.33;;;;;;;3.11;100.00;97436.28;5041399;28;20210;-72
2023/01/02 00:44:52;;;;;;;14.47;12.90;;;;;;;3.27;100.00;97429.75;5042447;28;20199;-71
2023/01/02 00:47:20;;;;;;;18.10;14.97;;;;;;;3.44;100.00;97431.72;5045378;28;20250;-73
2023/01/02 00:49:47;;;;;;;15.10;13.00;;;;;;;3.64;100.00;97425.72;5041080;28;20857;-70
2023/01/02 00:52:15;;;;;;;16.53;14.23;;;;;;;3.71;100.00;97432.91;5005768;28;20215;-73
2023/01/02 00:54:42;;;;;;;15.73;14.13;;;;;;;3.67;100.00;97436.78;5039414;28;20200;-74
2023/01/02 00:57:10;;;;;;;17.30;14.63;;;;;;;3.73;100.00;97430.97;5042096;28;20307;-74
2023/01/02 00:59:39;;;;;;;15.20;13.60;;;;;;;3.91;100.00;97423.28;5043912;28;20206;-70
2023/01/02 01:02:06;;;;;;;17.73;14.23;;;;;;;4.02;100.00;97422.34;5042391;28;20234;-73
2023/01/02 01:04:34;;;;;;;15.97;14.37;;;;;;;4.02;100.00;97424.13;5045410;28;20227;-73
2023/01/02 01:07:02;;;;;;;17.27;13.50;;;;;;;3.91;100.00;97425.06;5037455;28;20507;-75
2023/01/02 01:09:29;;;;;;;14.67;13.27;;;;;;;3.95;100.00;97418.59;5007691;28;20363;-72
2023/01/02 01:11:57;;;;;;;15.67;14.07;;;;;;;3.84;100.00;97426.59;5039473;28;20209;-74
2023/01/02 01:14:30;;;;;;;15.40;13.23;;;;;;;3.82;100.00;97433.75;5040140;28;20477;-72
2023/01/02 01:16:59;;;;;;;14.83;12.87;;;;;;;3.88;100.00;97426.19;5037411;28;20348;-73
2023/01/02 01:19:29;;;;;;;16.17;14.57;;;;;;;3.84;100.00;97430.03;5039602;28;20209;-72
2023/01/02 01:21:56;;;;;;;15.77;13.77;;;;;;;3.76;100.00;97424.63;5036272;28;20241;-73
2023/01/02 01:24:24;;;;;;;14.70;13.20;;;;;;;3.68;100.00;97420.09;5002631;28;20712;-73
2023/01/02 01:26:51;;;;;;;15.57;13.97;;;;;;;3.55;100.00;97425.56;5028563;28;20210;-74
2023/01/02 01:29:19;;;;;;;14.97;13.37;;;;;;;3.52;100.00;97422.38;5030793;28;20232;-73
2023/01/02 01:31:47;;;;;;;13.87;12.47;;;;;;;3.33;100.00;97423.97;5038040;28;20701;-72
2023/01/02 01:34:16;;;;;;;14.67;13.37;;;;;;;3.24;100.00;97430.81;5043562;28;20617;-73
2023/01/02 01:36:43;;;;;;;15.53;13.93;;;;;;;3.13;100.00;97444.00;5035902;28;20689;-71
2023/01/02 01:39:11;;;;;;;14.40;12.90;;;;;;;2.94;100.00;97444.75;5039484;28;20229;-72
2023/01/02 01:41:38;;;;;;;14.87;13.47;;;;;;;2.86;100.00;97448.00;4996522;28;20269;-71
2023/01/02 01:44:41;;;;;;;15.83;13.20;;;;;;;2.84;100.00;97452.53;5032765;28;20307;-73
2023/01/02 01:47:14;;;;;;;16.10;13.13;;;;;;;2.93;100.00;97451.75;5022015;28;20218;-72
2023/01/02 01:49:44;;;;;;;14.73;13.23;;;;;;;2.99;100.00;97434.69;5039827;28;20201;-72
2023/01/02 01:52:14;;;;;;;17.17;13.73;;;;;;;2.95;100.00;97434.13;5040743;28;20211;-72
2023/01/02 01:54:43;;;;;;;15.83;13.20;;;;;;;2.80;100.00;97445.88;5037234;28;20207;-71
2023/01/02 01:57:12;;;;;;;14.43;12.90;;;;;;;2.71;100.00;97443.09;5011098;28;20506;-71
2023/01/02 01:59:40;;;;;;;13.83;12.40;;;;;;;2.66;100.00;97441.81;5026043;28;20566;-72
2023/01/02 02:02:08;;;;;;;13.60;12.30;;;;;;;2.68;100.00;97445.97;5045062;28;20249;-72
2023/01/02 02:04:36;;;;;;;15.93;12.70;;;;;;;2.65;100.00;97440.16;5038190;28;20275;-71
2023/01/02 02:07:05;;;;;;;18.70;14.63;;;;;;;2.63;100.00;97434.22;5039955;28;20207;-72
2023/01/02 02:09:36;;;;;;;14.77;12.53;;;;;;;2.67;100.00;97427.75;5040990;28;20727;-73
2023/01/02 02:12:05;;;;;;;14.23;12.73;;;;;;;2.64;100.00;97404.47;5007944;28;20808;-71
2023/01/02 02:14:33;;;;;;;16.10;13.30;;;;;;;2.68;100.00;97405.88;5004194;28;20636;-72
2023/01/02 02:17:07;;;;;;;15.03;12.60;;;;;;;2.73;100.00;97408.94;5039523;28;20310;-71
2023/01/02 02:20:06;;;;;;;14.13;12.70;;;;;;;2.76;100.00;97395.59;5043553;28;20931;-70
2023/01/02 02:23:05;;;;;;;14.63;12.83;;;;;;;2.64;100.00;97386.16;5029845;28;20252;-73
2023/01/02 02:25:48;;;;;;;14.07;12.60;;;;;;;2.60;100.00;97386.41;5047079;28;20375;-74
2023/01/02 02:29:03;;;;;;;14.53;13.07;;;;;;;2.68;100.00;97374.47;5008903;28;20358;-71
2023/01/02 02:31:36;;;;;;;14.00;12.50;;;;;;;2.76;100.00;97374.66;4995932;28;20406;-71
2023/01/02 02:34:09;;;;;;;14.57;13.07;;;;;;;2.71;100.00;97371.59;5001429;28;20205;-74
2023/01/02 02:36:39;;;;;;;13.80;12.50;;;;;;;2.62;100.00;97367.16;5013405;28;20484;-72
2023/01/02 02:39:14;;;;;;;14.33;12.53;;;;;;;2.52;100.00;97362.69;5031996;28;20826;-71
2023/01/02 02:41:45;;;;;;;14.30;12.90;;;;;;;2.57;100.00;97359.69;5042413;28;20254;-73
2023/01/02 02:44:22;;;;;;;13.13;11.77;;;;;;;2.66;100.00;97352.84;5004316;28;20219;-72
2023/01/02 02:46:56;;;;;;;14.00;12.60;;;;;;;2.66;100.00;97352.84;5041981;28;20211;-73
2023/01/02 02:49:32;;;;;;;14.77;12.20;;;;;;;2.72;100.00;97357.56;5047187;28;20433;-72
2023/01/02 02:52:03;;;;;;;15.13;13.57;;;;;;;2.74;100.00;97342.56;5046991;28;20195;-72
2023/01/02 02:54:34;;;;;;;14.17;12.87;;;;;;;2.73;100.00;97352.22;5028849;28;20946;-71
2023/01/02 02:57:03;;;;;;;14.10;12.43;;;;;;;2.73;100.00;97353.97;5043739;28;20718;-70
2023/01/02 02:59:33;;;;;;;15.73;13.83;;;;;;;2.73;100.00;97351.38;5006169;28;20332;-70
2023/01/02 03:02:02;;;;;;;13.87;12.47;;;;;;;2.65;100.00;97348.56;5042958;28;20238;-73
2023/01/02 03:04:29;;;;;;;15.77;12.80;;;;;;;2.51;100.00;97355.81;5046364;28;20373;-71
2023/01/02 03:07:05;;;;;;;13.07;11.77;;;;;;;2.45;100.00;97353.69;5041859;28;20199;-72
2023/01/02 03:09:39;;;;;;;14.80;12.27;;;;;;;2.42;100.00;97352.16;5025713;28;20776;-71
2023/01/02 03:12:19;;;;;;;15.03;11.77;;;;;;;2.39;100.00;97357.66;5045137;28;20228;-73
2023/01/02 03:14:58;;;;;;;13.70;12.17;;;;;;;2.36;100.00;97346.63;5000361;28;20318;-74
2023/01/02 03:17:33;;;;;;;12.73;11.43;;;;;;;2.33;100.00;97342.50;5029740;28;20628;-73
2023/01/02 03:20:06;;;;;;;12.17;11.00;;;;;;;2.24;100.00;97353.69;5046110;28;20202;-71
2023/01/02 03:22:36;;;;;;;13.27;11.73;;;;;;;2.13;100.00;97378.13;5036866;28;20425;-71
2023/01/02 03:25:04;;;;;;;14.50;12.17;;;;;;;2.09;100.00;97377.53;5034708;28;20207;-70
2023/01/02 03:27:34;;;;;;;13.07;11.70;;;;;;;2.12;100.00;97379.91;5041400;28;20250;-71
2023/01/02 03:30:08;;;;;;;13.07;11.77;;;;;;;2.09;100.00;97374.91;5033524;28;20230;-73
2023/01/02 03:32:40;;;;;;;12.93;11.73;;;;;;;2.01;100.00;97369.50;5027177;28;20717;-71
2023/01/02 03:35:11;;;;;;;13.13;11.90;;;;;;;2.02;100.00;97369.34;5045575;28;20233;-73
2023/01/02 03:37:41;;;;;;;12.00;10.80;;;;;;;2.00;100.00;97371.25;5036657;28;20288;-72
2023/01/02 03:40:13;;;;;;;12.63;11.43;;;;;;;2.01;100.00;97359.84;5024255;28;20683;-72
2023/01/02 03:42:44;;;;;;;12.63;11.00;;;;;;;2.05;100.00;97370.06;5036942;28;20223;-71
2023/01/02 03:45:16;;;;;;;12.37;10.87;;;;;;;2.09;100.00;97361.84;5037647;28;20295;-72
2023/01/02 03:47:51;;;;;;;12.43;11.33;;;;;;;2.10;100.00;97366.13;5007677;28;20230;-73
2023/01/02 03:50:22;;;;;;;13.07;11.67;;;;;;;2.11;100.00;97357.31;5039439;28;20637;-72
2023/01/02 03:52:49;;;;;;;12.20;10.93;;;;;;;2.08;100.00;97354.97;5041942;28;20407;-73
2023/01/02 03:55:17;;;;;;;11.87;10.67;;;;;;;2.02;100.00;97356.28;5024568;28;20218;-71
2023/01/02 03:57:53;;;;;;;11.40;10.30;;;;;;;2.09;100.00;97351.41;5042201;28;20729;-71
2023/01/02 04:00:30;;;;;;;12.00;10.73;;;;;;;2.10;100.00;97357.47;5039964;28;20272;-73
2023/01/02 04:03:03;;;;;;;11.13;10.13;;;;;;;2.06;100.00;97349.03;5011293;28;20227;-71
2023/01/02 04:05:34;;;;;;;11.50;10.40;;;;;;;2.01;100.00;97349.41;5048387;28;20407;-73
2023/01/02 04:08:05;;;;;;;12.70;11.40;;;;;;;1.99;100.00;97351.31;5042019;28;20229;-71
2023/01/02 04:10:35;;;;;;;12.50;11.23;;;;;;;2.01;100.00;97352.00;5028541;28;20857;-71
2023/01/02 04:13:06;;;;;;;12.90;11.50;;;;;;;2.07;100.00;97347.22;5046238;28;20234;-71
2023/01/02 04:15:35;;;;;;;12.23;11.03;;;;;;;2.05;100.00;97346.53;5047339;28;20312;-72
2023/01/02 04:18:08;;;;;;;13.30;11.83;;;;;;;1.93;100.00;97354.44;5008900;28;20237;-72
2023/01/02 04:20:38;;;;;;;13.97;12.40;;;;;;;1.87;100.00;97347.09;5042564;28;20206;-71
2023/01/02 04:23:09;;;;;;;14.13;12.63;;;;;;;1.90;100.00;97352.06;5010911;28;20479;-73
2023/01/02 04:25:41;;;;;;;14.10;12.23;;;;;;;1.85;100.00;97349.81;5046131;28;20217;-71
2023/01/02 04:28:12;;;;;;;13.20;11.87;;;;;;;1.83;100.00;97346.50;5052721;28;20239;-72
2023/01/02 04:30:42;;;;;;;13.03;11.73;;;;;;;1.78;100.00;97358.31;5039411;28;20218;-69
2023/01/02 04:33:12;;;;;;;15.07;12.20;;;;;;;1.72;100.00;97357.84;5044056;28;20214;-74
2023/01/02 04:35:40;;;;;;;15.90;12.77;;;;;;;1.78;100.00;97360.91;5047286;28;20474;-73
2023/01/02 04:38:08;;;;;;;14.17;12.70;;;;;;;1.75;100.00;97356.75;5016505;28;20422;-72
2023/01/02 04:40:37;;;;;;;16.70;12.37;;;;;;;1.79;100.00;97352.13;5054371;28;20324;-69
2023/01/02 04:43:05;;;;;;;14.87;12.97;;;;;;;1.81;100.00;97358.06;5048631;28;20451;-71
2023/01/02 04:45:32;;;;;;;13.23;11.90;;;;;;;1.84;100.00;97368.25;5005493;28;20235;-68
2023/01/02 04:48:00;;;;;;;16.47;13.53;;;;;;;1.84;100.00;97365.63;5047254;28;20218;-70
2023/01/02 04:50:29;;;;;;;14.77;13.23;;;;;;;1.90;100.00;97357.31;5029319;28;20703;-69
2023/01/02 04:52:56;;;;;;;16.30;13.13;;;;;;;1.90;100.00;97357.31;5000097;28;20609;-69
2023/01/02 04:55:24;;;;;;;16.60;14.40;;;;;;;1.93;100.00;97357.03;5042829;28;20544;-69
2023/01/02 04:57:51;;;;;;;14.77;13.27;;;;;;;1.83;100.00;97359.56;5044862;28;20215;-70
2023/01/02 05:00:19;;;;;;;17.60;13.80;;;;;;;1.86;100.00;97350.66;5019216;28;20219;-68
2023/01/02 05:02:47;;;;;;;15.60;13.67;;;;;;;1.97;100.00;97361.06;5019920;28;20227;-69
2023/01/02 05:05:14;;;;;;;17.03;15.33;;;;;;;2.08;100.00;97349.75;5042711;28;20218;-68
2023/01/02 05:07:43;;;;;;;20.73;15.33;;;;;;;2.20;100.00;97360.13;4982429;28;20214;-69
2023/01/02 05:10:11;;;;;;;18.00;15.70;;;;;;;2.14;100.00;97357.06;5047276;28;20769;-70
2023/01/02 05:12:39;;;;;;;16.27;14.57;;;;;;;2.17;100.00;97366.47;5027686;28;20210;-69
2023/01/02 05:15:08;;;;;;;17.73;15.43;;;;;;;2.19;100.00;97361.94;5030456;28;20916;-70
2023/01/02 05:17:36;;;;;;;17.63;14.37;;;;;;;2.27;100.00;97369.97;5022120;28;20254;-69
2023/01/02 05:20:05;;;;;;;17.67;15.63;;;;;;;2.25;100.00;97366.66;5026688;28;20425;-72
2023/01/02 05:25:19;;;;;;;16.00;14.40;;;;;;;2.48;100.00;97363.06;5038850;28;20743;-70
2023/01/02 05:27:47;;;;;;;20.17;15.33;;;;;;;2.51;100.00;97360.19;5042158;28;20219;-70
2023/01/02 05:30:14;;;;;;;18.83;14.97;;;;;;;2.58;100.00;97364.78;5037099;28;20210;-69
2023/01/02 05:32:42;;;;;;;19.77;16.93;;;;;;;2.67;100.00;97347.50;5014912;28;20947;-71
2023/01/02 05:35:09;;;;;;;20.67;16.67;;;;;;;2.79;100.00;97334.31;5048087;28;20598;-69
2023/01/02 05:37:37;;;;;;;17.97;16.13;;;;;;;2.87;100.00;97344.97;4973572;28;20952;-69
2023/01/02 05:40:05;;;;;;;20.23;16.33;;;;;;;2.86;100.00;97345.91;5041320;28;20683;-69
2023/01/02 05:42:34;;;;;;;20.57;16.50;;;;;;;2.86;100.00;97354.63;5030029;28;20778;-68
2023/01/02 05:45:02;;;;;;;21.67;16.90;;;;;;;2.96;100.00;97352.00;5024208;28;20231;-69
2023/01/02 05:47:29;;;;;;;20.47;17.43;;;;;;;2.94;100.00;97345.28;5004722;28;20231;-71
2023/01/02 05:49:57;;;;;;;19.83;16.87;;;;;;;2.87;100.00;97343.19;5030685;28;20500;-71
2023/01/02 05:52:24;;;;;;;17.77;15.87;;;;;;;2.82;100.00;97352.38;5029685;28;20574;-68
2023/01/02 05:54:52;;;;;;;20.43;16.77;;;;;;;2.93;100.00;97344.44;5008560;28;20702;-71
2023/01/02 05:57:19;;;;;;;23.83;18.27;;;;;;;2.94;100.00;97356.56;5052799;28;20226;-69
2023/01/02 05:59:48;;;;;;;19.93;16.50;;;;;;;3.04;100.00;97359.22;5047347;28;20505;-69
2023/01/02 06:02:16;;;;;;;18.67;16.20;;;;;;;3.11;100.00;97357.72;5035740;28;20211;-69
2023/01/02 06:04:44;;;;;;;20.10;16.27;;;;;;;3.15;100.00;97369.59;5038815;28;20623;-68
2023/01/02 06:07:11;;;;;;;20.27;16.37;;;;;;;3.17;100.00;97365.03;5045003;28;20212;-69
2023/01/02 06:09:39;;;;;;;19.50;16.13;;;;;;;3.05;100.00;97366.13;5001541;28;20214;-68
2023/01/02 06:12:07;;;;;;;21.45;17.50;;;;;;;3.04;100.00;97369.69;5042616;28;20456;-65
2023/01/02 06:14:34;;;;;;;19.43;16.00;;;;;;;2.97;100.00;97365.94;5045144;28;20886;-64
2023/01/02 06:17:03;;;;;;;16.83;14.67;;;;;;;2.69;100.00;97373.53;5047925;28;20230;-72
2023/01/02 06:19:31;;;;;;;17.47;14.77;;;;;;;2.54;100.00;97371.25;5018618;28;20226;-69
2023/01/02 06:21:58;;;;;;;19.17;17.05;;;;;;;2.38;100.00;97365.63;5039363;28;20624;-70
2023/01/02 06:24:27;;;;;;;17.33;15.17;;;;;;;2.32;100.00;97369.59;4999654;28;20959;-68
2023/01/02 06:26:55;;;;;;;15.70;13.57;;;;;;;2.28;100.00;97374.22;5044695;28;20297;-71
2023/01/02 06:29:23;;;;;;;17.70;14.27;;;;;;;2.25;100.00;97366.66;4978244;28;20215;-70
2023/01/02 06:31:50;;;;;;;19.15;17.15;;;;;;;2.21;100.00;97367.84;5039382;28;20451;-67
2023/01/02 06:34:19;;;;;;;18.20;15.07;;;;;;;2.19;100.00;97364.53;5034291;28;20578;-70
2023/01/02 06:36:47;;;;;;;17.23;15.27;;;;;;;2.17;100.00;97363.84;5043258;28;20298;-68
2023/01/02 06:39:15;;;;;;;16.93;14.90;;;;;;;2.23;100.00;97372.94;5043608;28;20234;-71
2023/01/02 06:41:42;;;;;;;18.27;14.50;;;;;;;2.27;100.00;97367.34;5022821;28;20211;-70
2023/01/02 06:44:12;;;;;;;18.07;15.63;;;;;;;2.27;100.00;97362.13;5006055;28;20233;-69
2023/01/02 06:46:40;;;;;;;18.13;16.20;;;;;;;2.39;100.00;97357.66;5040640;28;20448;-69
2023/01/02 06:49:07;;;;;;;21.47;16.47;;;;;;;2.46;100.00;97368.41;5022610;28;20769;-70
2023/01/02 06:51:36;;;;;;;19.47;16.20;;;;;;;2.44;100.00;97367.72;5021601;28;20211;-68
2023/01/02 06:54:04;;;;;;;19.53;16.73;;;;;;;2.41;100.00;97358.34;5027892;28;20348;-70
2023/01/02 06:56:31;;;;;;;21.47;17.03;;;;;;;2.48;100.00;97357.84;5046259;28;20215;-68
2023/01/02 06:58:59;;;;;;;24.13;21.52;;;;;;;2.50;100.00;97358.53;5003800;28;22872;-70
2023/01/02 07:01:28;;;;;;;22.37;17.70;;;;;;;2.50;100.00;97363.78;5041846;28;20589;-71
2023/01/02 07:03:56;;;;;;;22.70;16.93;;;;;;;2.56;100.00;97360.63;5042463;28;20223;-71
2023/01/02 07:06:26;;;;;;;24.17;17.60;;;;;;;2.70;100.00;97381.25;5031544;28;20672;-71
2023/01/02 07:08:55;;;;;;;21.87;19.00;;;;;;;2.57;100.00;97380.59;5022954;28;20227;-70
2023/01/02 07:11:24;;;;;;;19.83;17.87;;;;;;;2.44;100.00;97375.56;5044156;28;20454;-69
2023/01/02 07:13:53;;;;;;;20.27;17.00;;;;;;;2.34;100.00;97367.69;5041727;28;20310;-68
2023/01/02 07:16:22;;;;;;;24.58;22.08;;;;;;;2.34;100.00;97374.69;5004814;28;20438;-67
2023/01/02 07:18:51;;;;;;;24.43;19.73;;;;;;;2.38;100.00;97378.69;5038438;28;20369;-72
2023/01/02 07:21:19;;;;;;;26.85;23.25;;;;;;;2.43;100.00;97384.38;5025509;28;20459;-71
2023/01/02 07:23:47;;;;;;;21.57;19.17;;;;;;;2.46;100.00;97389.34;5024929;28;20226;-70
2023/01/02 07:26:16;;;;;;;29.90;24.37;;;;;;;2.59;100.00;97386.53;5046302;28;20415;-70
2023/01/02 07:28:43;;;;;;;21.10;18.90;;;;;;;2.65;100.00;97383.44;5041948;28;20225;-70
2023/01/02 07:31:12;;;;;;;23.63;19.73;;;;;;;2.78;100.00;97379.78;4997400;28;20709;-71
2023/01/02 07:33:40;;;;;;;23.43;19.87;;;;;;;2.92;100.00;97378.59;5041881;28;20203;-69
2023/01/02 07:36:10;;;;;;;24.73;20.43;;;;;;;3.00;100.00;97386.63;5031686;28;20505;-69
2023/01/02 07:38:38;;;;;;;23.67;20.70;;;;;;;3.01;100.00;97393.50;5034616;28;20590;-67
2023/01/02 07:41:13;;;;;;;22.17;18.83;;;;;;;2.92;100.00;97405.59;5015774;28;20903;-69
2023/01/02 07:43:42;;;;;;;26.07;20.37;;;;;;;2.77;100.00;97404.28;5045812;28;20213;-71
2023/01/02 07:46:10;;;;;;;28.33;24.93;;;;;;;2.71;100.00;97400.38;4993128;28;20693;-69
2023/01/02 07:48:37;;;;;;;22.73;20.43;;;;;;;2.79;100.00;97397.94;5039238;28;20284;-68
2023/01/02 07:51:06;;;;;;;23.27;20.77;;;;;;;2.80;100.00;97401.41;5040622;28;20933;-69
2023/01/02 07:53:34;;;;;;;25.87;20.40;;;;;;;2.94;100.00;97402.84;5033110;28;20207;-69
2023/01/02 07:56:02;;;;;;;26.73;21.93;;;;;;;3.05;100.00;97415.84;5047149;28;20213;-69
2023/01/02 07:58:30;;;;;;;23.93;21.07;;;;;;;3.13;100.00;97405.53;5042098;28;21494;-71
2023/01/02 08:01:06;;;;;;;25.60;19.13;;;;;;;3.24;100.00;97412.50;5030428;28;20231;-68
2023/01/02 08:03:34;;;;;;;24.07;21.33;;;;;;;3.41;100.00;97404.94;5036686;28;20237;-71
2023/01/02 08:06:06;;;;;;;27.30;20.67;;;;;;;3.55;100.00;97403.75;5045525;28;20222;-70
2023/01/02 08:08:34;;;;;;;24.93;20.10;;;;;;;3.68;100.00;97406.97;5045566;28;20422;-71
2023/01/02 08:11:04;;;;;;;26.83;20.20;;;;;;;3.88;100.00;97397.34;5040383;28;20198;-69
2023/01/02 08:13:32;;;;;;;22.27;19.90;;;;;;;4.01;100.00;97391.84;5040407;28;20412;-70
2023/01/02 08:16:05;;;;;;;25.37;19.07;;;;;;;4.13;100.00;97394.31;5026278;28;20200;-69
2023/01/02 08:18:32;;;;;;;21.53;19.23;;;;;;;4.24;100.00;97394.19;5005858;28;20241;-70
2023/01/02 08:21:00;;;;;;;19.53;16.33;;;;;;;4.33;100.00;97398.59;5037777;28;20208;-68
2023/01/02 08:23:27;;;;;;;19.40;17.43;;;;;;;4.45;100.00;97387.97;5042799;28;20215;-71
2023/01/02 08:25:57;;;;;;;20.85;18.65;;;;;;;4.66;100.00;97376.44;5038333;28;20458;-71
2023/01/02 08:28:25;;;;;;;18.77;16.87;;;;;;;4.79;100.00;97382.25;5037657;28;20220;-71
2023/01/02 08:30:53;;;;;;;19.38;17.38;;;;;;;4.90;100.00;97378.59;5024086;28;20436;-70
2023/01/02 08:33:22;;;;;;;18.38;16.67;;;;;;;5.00;100.00;97383.81;4993928;28;20702;-70
2023/01/02 08:35:50;;;;;;;17.53;15.83;;;;;;;5.10;100.00;97381.97;5010216;28;20360;-68
2023/01/02 08:38:18;;;;;;;16.67;14.93;;;;;;;5.14;100.00;97385.16;5022736;28;20361;-70
2023/01/02 08:40:46;;;;;;;15.57;14.17;;;;;;;5.22;100.00;97380.84;5028904;28;20217;-69
2023/01/02 08:43:13;;;;;;;15.30;13.87;;;;;;;5.32;100.00;97378.16;5039266;28;20412;-71
2023/01/02 08:45:42;;;;;;;16.93;15.07;;;;;;;5.26;100.00;97398.94;5027690;28;20226;-68
2023/01/02 08:48:10;;;;;;;16.87;14.90;;;;;;;5.21;100.00;97400.19;5037024;28;20579;-71
2023/01/02 08:50:50;;;;;;;15.80;14.00;;;;;;;5.33;100.00;97394.75;5018955;28;20895;-68
2023/01/02 08:53:17;;;;;;;14.33;12.93;;;;;;;5.46;100.00;97391.78;5025487;28;20208;-71
2023/01/02 08:55:45;;;;;;;15.33;13.80;;;;;;;5.59;100.00;97396.69;5039260;28;20213;-68
2023/01/02 08:58:13;;;;;;;17.17;15.37;;;;;;;5.78;100.00;97391.31;5035373;28;20482;-69
2023/01/02 09:00:40;;;;;;;17.17;15.57;;;;;;;6.00;100.00;97397.13;5024253;28;21083;-68
2023/01/02 09:03:08;;;;;;;15.87;14.27;;;;;;;6.21;100.00;97388.13;5033207;28;21188;-69
2023/01/02 09:05:36;;;;;;;14.80;13.30;;;;;;;6.31;100.00;97394.16;5035692;28;20657;-68
2023/01/02 09:08:05;;;;;;;15.27;13.77;;;;;;;6.33;100.00;97389.56;4995991;28;20241;-69
2023/01/02 09:10:32;;;;;;;15.33;13.83;;;;;;;6.50;100.00;97394.94;5042015;28;20209;-70
2023/01/02 09:13:00;;;;;;;15.30;13.73;;;;;;;6.54;100.00;97388.41;5034347;28;20208;-70
2023/01/02 09:15:27;;;;;;;13.80;12.57;;;;;;;6.49;100.00;97388.88;5030539;28;20603;-70
2023/01/02 09:17:55;;;;;;;13.63;12.23;;;;;;;6.50;100.00;97393.16;5020185;28;20230;-70
2023/01/02 09:20:23;;;;;;;14.20;11.83;;;;;;;6.56;100.00;97393.53;5041562;28;20218;-68
2023/01/02 09:22:50;;;;;;;12.67;11.37;;;;;;;6.70;100.00;97400.03;4998750;28;20785;-68
2023/01/02 09:25:19;;;;;;;14.37;12.10;;;;;;;6.80;100.00;97392.84;5024075;28;20223;-68
2023/01/02 09:27:51;;;;;;;12.00;10.87;;;;;;;6.94;100.00;97391.47;5044726;28;20307;-67
2023/01/02 09:30:19;;;;;;;10.47;9.53;;;;;;;7.00;100.00;97390.84;5029107;28;20211;-70
2023/01/02 09:32:49;;;;;;;11.07;10.17;;;;;;;7.01;100.00;97384.59;5032260;28;20409;-69
2023/01/02 09:35:17;;;;;;;13.27;10.87;;;;;;;7.19;100.00;97381.03;5042526;28;20196;-68
2023/01/02 09:37:44;;;;;;;11.80;10.70;;;;;;;7.24;100.00;97379.59;4997359;28;20233;-71
2023/01/02 09:40:13;;;;;;;11.70;10.70;;;;;;;7.23;100.00;97385.84;5027671;28;20207;-68
2023/01/02 09:42:42;;;;;;;12.00;10.67;;;;;;;7.32;100.00;97388.50;5037177;28;20765;-71
2023/01/02 09:45:11;;;;;;;11.93;10.77;;;;;;;7.30;100.00;97377.31;5023903;28;20266;-70
2023/01/02 09:47:39;;;;;;;11.20;10.20;;;;;;;7.34;100.00;97376.00;5006411;28;20569;-70
2023/01/02 09:50:11;;;;;;;12.13;10.90;;;;;;;7.49;100.00;97384.97;5045518;28;20232;-71
2023/01/02 09:52:41;;;;;;;11.63;10.53;;;;;;;7.69;100.00;97379.41;5039653;28;20207;-71
2023/01/02 09:55:14;;;;;;;12.07;10.83;;;;;;;7.75;100.00;97362.94;4989045;28;20230;-70
2023/01/02 09:57:48;;;;;;;13.73;12.33;;;;;;;7.87;100.00;97370.56;5040351;28;20893;-72
2023/01/02 10:00:19;;;;;;;11.70;10.50;;;;;;;7.71;100.00;97355.53;5041651;28;20207;-70
2023/01/02 10:02:51;;;;;;;13.70;12.40;;;;;;;7.85;100.00;97362.00;5011236;28;20214;-71
2023/01/02 10:05:38;;;;;;;12.03;10.97;;;;;;;7.90;100.00;97351.78;5041237;28;20919;-69
2023/01/02 10:08:11;;;;;;;12.53;11.37;;;;;;;7.93;100.00;97356.72;5035645;28;20454;-69
2023/01/02 10:10:41;;;;;;;12.90;11.70;;;;;;;8.02;100.00;97358.38;4995280;28;20460;-71
2023/01/02 10:13:16;;;;;;;13.32;12.15;;;;;;;8.06;100.00;97351.78;5043574;28;20430;-71
2023/01/02 10:15:46;;;;;;;11.37;10.27;;;;;;;8.10;100.00;97344.38;5027605;28;20325;-71
2023/01/02 10:18:18;;;;;;;12.87;11.67;;;;;;;8.10;100.00;97352.28;5030656;28;20288;-69
2023/01/02 10:20:50;;;;;;;12.37;11.13;;;;;;;8.24;100.00;97351.63;5038919;28;20846;-71
2023/01/02 10:23:22;;;;;;;12.23;11.07;;;;;;;8.36;100.00;97346.84;5042956;28;20722;-68
2023/01/02 10:25:52;;;;;;;12.57;11.33;;;;;;;8.48;100.00;97349.13;4991275;28;20702;-71
2023/01/02 10:28:27;;;;;;;11.40;10.00;;;;;;;8.57;100.00;97348.19;5038280;28;20451;-69
2023/01/02 10:30:56;;;;;;;11.70;10.70;;;;;;;8.49;100.00;97359.59;5047820;28;20396;-70
2023/01/02 10:33:31;;;;;;;9.97;8.97;;;;;;;8.64;100.00;97366.81;5010875;28;20322;-69
2023/01/02 10:36:01;;;;;;;10.80;9.30;;;;;;;8.68;100.00;97363.69;5047909;28;20500;-71
2023/01/02 10:38:34;;;;;;;11.20;10.10;;;;;;;8.69;100.00;97364.50;5039329;28;20223;-68
2023/01/02 10:41:02;;;;;;;10.43;9.43;;;;;;;8.81;100.00;97362.34;4983106;28;20222;-68
2023/01/02 10:43:33;;;;;;;11.67;10.53;;;;;;;8.79;99.33;97353.75;5012099;28;20360;-69
2023/01/02 10:46:02;;;;;;;11.13;10.03;;;;;;;8.91;96.86;97364.78;5019383;28;20233;-69
2023/01/02 10:48:34;;;;;;;10.97;9.97;;;;;;;8.73;95.72;97365.84;5025840;28;20543;-68
2023/01/02 10:51:03;;;;;;;11.13;10.13;;;;;;;8.91;95.91;97360.34;5045214;28;20212;-70
2023/01/02 10:53:32;;;;;;;12.82;11.52;;;;;;;8.76;96.32;97351.44;5015016;28;20555;-69
2023/01/02 10:56:01;;;;;;;11.17;10.17;;;;;;;8.53;96.24;97344.25;5046501;28;20552;-71
2023/01/02 10:58:32;;;;;;;11.07;10.07;;;;;;;8.45;96.85;97334.47;5044809;28;20241;-70
2023/01/02 11:01:05;;;;;;;11.30;10.20;;;;;;;8.38;98.77;97329.03;4996091;28;20693;-68
2023/01/02 11:03:33;;;;;;;12.20;10.93;;;;;;;8.44;100.00;97331.97;5041625;28;20206;-70
2023/01/02 11:06:01;;;;;;;11.83;10.63;;;;;;;8.39;99.41;97338.59;5050668;28;20226;-68
2023/01/02 11:08:56;;;;;;;13.87;10.03;;;;;;;8.36;100.00;97328.38;5016503;28;20238;-69
2023/01/02 11:11:24;;;;;;;12.93;10.70;;;;;;;8.30;100.00;97334.31;5041667;28;20297;-70
2023/01/02 11:13:54;;;;;;;10.93;9.93;;;;;;;8.30;100.00;97336.94;5040281;28;20204;-68
2023/01/02 11:16:24;;;;;;;11.57;10.47;;;;;;;8.28;100.00;97335.44;4995148;28;20211;-68
2023/01/02 11:18:54;;;;;;;12.70;11.50;;;;;;;8.17;100.00;97329.53;5042604;28;20493;-70
2023/01/02 11:21:26;;;;;;;14.80;10.93;;;;;;;8.15;100.00;97330.69;5048465;28;20199;-71
2023/01/02 11:23:58;;;;;;;11.70;10.53;;;;;;;8.17;100.00;97326.06;5034392;28;20211;-70
2023/01/02 11:26:27;;;;;;;12.37;11.23;;;;;;;8.18;100.00;97327.72;5031831;28;20790;-70
2023/01/02 11:29:00;;;;;;;11.57;10.47;;;;;;;8.21;100.00;97330.84;5043985;28;20453;-68
2023/01/02 11:31:27;;;;;;;10.53;9.57;;;;;;;8.18;100.00;97320.63;4999958;28;20596;-70